sensor_id;sensor_type;location;lat;lon;timestamp;pressure;altitude;pressure_sealevel;temperature;humidity
17593;BME280;8915;51.760;14.300;2022-09-29T00:00:00;99306.44;;;4.87;100.00
17593;BME280;8915;51.760;14.300;2022-09-29T00:02:30;99301.41;;;4.82;100.00
17593;BME280;8915;51.760;14.300;2022-09-29T00:04:56;99306.16;;;4.63;100.00
17593;BME280;8915;51.760;14.300;2022-09-29T00:07:22;99308.63;;;4.68;100.00
17593;BME280;8915;51.760;14.300;2022-09-29T00:09:49;99307.78;;;4.66;100.00
17593;BME280;8915;51.760;14.300;2022-09-29T00:12:15;99304.38;;;4.65;100.00
17593;BME280;8915;51.760;14.300;2022-09-29T00:14:43;99308.69;;;4.65;100.00
17593;BME280;8915;51.760;14.300;2022-09-29T00:17:09;99314.75;;;4.62;100.00
17593;BME280;8915;51.760;14.300;2022-09-29T00:19:36;99318.16;;;4.64;100.00
17593;BME280;8915;51.760;14.300;2022-09-29T00:22:03;99319.91;;;4.64;100.00
17593;BME280;8915;51.760;14.300;2022-09-29T00:24:29;99321.41;;;4.72;100.00
17593;BME280;8915;51.760;14.300;2022-09-29T00:26:55;99323.13;;;4.73;100.00
17593;BME280;8915;51.760;14.300;2022-09-29T00:29:22;99317.09;;;4.73;100.00
17593;BME280;8915;51.760;14.300;2022-09-29T00:31:50;99319.63;;;4.76;100.00
17593;BME280;8915;51.760;14.300;2022-09-29T00:34:16;99317.16;;;4.71;100.00
17593;BME280;8915;51.760;14.300;2022-09-29T00:36:44;99319.84;;;4.67;100.00
17593;BME280;8915;51.760;14.300;2022-09-29T00:39:10;99315.72;;;4.58;100.00
17593;BME280;8915;51.760;14.300;2022-09-29T00:41:38;99314.78;;;4.61;100.00
17593;BME280;8915;51.760;14.300;2022-09-29T00:44:51;99317.53;;;4.54;100.00
17593;BME280;8915;51.760;14.300;2022-09-29T00:46:56;99326.03;;;4.60;100.00
17593;BME280;8915;51.760;14.300;2022-09-29T00:49:27;99318.41;;;4.53;100.00
17593;BME280;8915;51.760;14.300;2022-09-29T00:51:58;99307.31;;;4.48;100.00
17593;BME280;8915;51.760;14.300;2022-09-29T00:54:28;99304.06;;;4.42;100.00
17593;BME280;8915;51.760;14.300;2022-09-29T00:56:58;99311.03;;;4.36;100.00
17593;BME280;8915;51.760;14.300;2022-09-29T00:59:31;99310.16;;;4.38;100.00
17593;BME280;8915;51.760;14.300;2022-09-29T01:02:02;99313.69;;;4.33;100.00
17593;BME280;8915;51.760;14.300;2022-09-29T01:04:30;99316.31;;;4.30;100.00
17593;BME280;8915;51.760;14.300;2022-09-29T01:06:57;99309.59;;;4.23;100.00
17593;BME280;8915;51.760;14.300;2022-09-29T01:09:26;99316.53;;;4.21;100.00
17593;BME280;8915;51.760;14.300;2022-09-29T01:11:54;99315.78;;;4.16;100.00
17593;BME280;8915;51.760;14.300;2022-09-29T01:14:23;99314.16;;;4.12;100.00
17593;BME280;8915;51.760;14.300;2022-09-29T01:16:50;99315.22;;;4.02;100.00
17593;BME280;8915;51.760;14.300;2022-09-29T01:19:24;99320.38;;;4.02;100.00
17593;BME280;8915;51.760;14.300;2022-09-29T01:22:02;99320.63;;;3.89;100.00
17593;BME280;8915;51.760;14.300;2022-09-29T01:24:50;99314.63;;;3.87;100.00
17593;BME280;8915;51.760;14.300;2022-09-29T01:27:29;99315.47;;;3.88;100.00
17593;BME280;8915;51.760;14.300;2022-09-29T01:30:13;99323.28;;;3.83;100.00
17593;BME280;8915;51.760;14.300;2022-09-29T01:32:59;99328.47;;;3.82;100.00
17593;BME280;8915;51.760;14.300;2022-09-29T01:35:37;99328.72;;;3.69;100.00
17593;BME280;8915;51.760;14.300;2022-09-29T01:38:13;99324.53;;;3.62;100.00
17593;BME280;8915;51.760;14.300;2022-09-29T01:40:47;99327.13;;;3.62;100.00
17593;BME280;8915;51.760;14.300;2022-09-29T01:43:23;99320.94;;;3.71;100.00
17593;BME280;8915;51.760;14.300;2022-09-29T01:45:58;99323.31;;;3.82;100.00
17593;BME280;8915;51.760;14.300;2022-09-29T01:48:31;99317.53;;;3.70;100.00
17593;BME280;8915;51.760;14.300;2022-09-29T01:51:03;99321.75;;;3.74;100.00
17593;BME280;8915;51.760;14.300;2022-09-29T01:53:34;99320.75;;;3.82;100.00
17593;BME280;8915;51.760;14.300;2022-09-29T01:56:07;99321.69;;;3.77;100.00
17593;BME280;8915;51.760;14.300;2022-09-29T01:58:39;99332.94;;;3.75;100.00
17593;BME280;8915;51.760;14.300;2022-09-29T02:01:11;99323.44;;;3.77;100.00
17593;BME280;8915;51.760;14.300;2022-09-29T02:03:43;99326.81;;;3.79;100.00
17593;BME280;8915;51.760;14.300;2022-09-29T02:06:14;99332.78;;;3.83;100.00
17593;BME280;8915;51.760;14.300;2022-09-29T02:08:46;99332.94;;;3.73;100.00
17593;BME280;8915;51.760;14.300;2022-09-29T02:11:15;99327.22;;;3.57;100.00
17593;BME280;8915;51.760;14.300;2022-09-29T02:13:46;99334.84;;;3.64;100.00
17593;BME280;8915;51.760;14.300;2022-09-29T02:16:16;99333.03;;;3.69;100.00
17593;BME280;8915;51.760;14.300;2022-09-29T02:18:48;99339.91;;;3.68;100.00
17593;BME280;8915;51.760;14.300;2022-09-29T02:21:17;99335.50;;;3.75;100.00
17593;BME280;8915;51.760;14.300;2022-09-29T02:23:43;99335.28;;;3.87;100.00
17593;BME280;8915;51.760;14.300;2022-09-29T02:26:10;99330.78;;;3.95;100.00
17593;BME280;8915;51.760;14.300;2022-09-29T02:28:38;99344.34;;;4.07;100.00
17593;BME280;8915;51.760;14.300;2022-09-29T02:31:05;99344.13;;;4.17;100.00
17593;BME280;8915;51.760;14.300;2022-09-29T02:33:31;99350.13;;;4.18;100.00
17593;BME280;8915;51.760;14.300;2022-09-29T02:36:06;99352.69;;;4.20;100.00
17593;BME280;8915;51.760;14.300;2022-09-29T02:38:42;99353.47;;;4.22;100.00
17593;BME280;8915;51.760;14.300;2022-09-29T02:41:24;99361.03;;;4.31;100.00
17593;BME280;8915;51.760;14.300;2022-09-29T02:44:17;99361.63;;;4.45;100.00
17593;BME280;8915;51.760;14.300;2022-09-29T02:47:00;99362.44;;;4.47;100.00
17593;BME280;8915;51.760;14.300;2022-09-29T02:49:38;99363.41;;;4.42;100.00
17593;BME280;8915;51.760;14.300;2022-09-29T02:52:17;99358.94;;;4.48;100.00
17593;BME280;8915;51.760;14.300;2022-09-29T02:54:55;99362.19;;;4.58;100.00
17593;BME280;8915;51.760;14.300;2022-09-29T02:57:30;99356.03;;;4.64;100.00
17593;BME280;8915;51.760;14.300;2022-09-29T03:00:03;99356.81;;;4.67;100.00
17593;BME280;8915;51.760;14.300;2022-09-29T03:02:33;99360.31;;;4.66;100.00
17593;BME280;8915;51.760;14.300;2022-09-29T03:04:59;99359.31;;;4.72;100.00
17593;BME280;8915;51.760;14.300;2022-09-29T03:07:28;99362.72;;;4.74;100.00
17593;BME280;8915;51.760;14.300;2022-09-29T03:09:54;99361.91;;;4.72;100.00
17593;BME280;8915;51.760;14.300;2022-09-29T03:12:20;99370.22;;;4.85;100.00
17593;BME280;8915;51.760;14.300;2022-09-29T03:14:47;99371.22;;;4.78;100.00
17593;BME280;8915;51.760;14.300;2022-09-29T03:17:13;99376.47;;;4.74;100.00
17593;BME280;8915;51.760;14.300;2022-09-29T03:19:39;99372.84;;;4.82;100.00
17593;BME280;8915;51.760;14.300;2022-09-29T03:22:06;99379.91;;;4.75;100.00
17593;BME280;8915;51.760;14.300;2022-09-29T03:24:33;99379.78;;;4.80;100.00
17593;BME280;8915;51.760;14.300;2022-09-29T03:27:00;99379.72;;;4.83;100.00
17593;BME280;8915;51.760;14.300;2022-09-29T03:29:26;99384.03;;;4.84;100.00
17593;BME280;8915;51.760;14.300;2022-09-29T03:31:53;99381.31;;;4.88;100.00
17593;BME280;8915;51.760;14.300;2022-09-29T03:34:19;99385.50;;;4.94;100.00
17593;BME280;8915;51.760;14.300;2022-09-29T03:36:45;99380.25;;;4.97;100.00
17593;BME280;8915;51.760;14.300;2022-09-29T03:39:12;99388.78;;;5.01;100.00
17593;BME280;8915;51.760;14.300;2022-09-29T03:41:39;99385.19;;;5.06;100.00
17593;BME280;8915;51.760;14.300;2022-09-29T03:44:06;99391.31;;;5.04;100.00
17593;BME280;8915;51.760;14.300;2022-09-29T03:46:33;99399.00;;;5.07;100.00
17593;BME280;8915;51.760;14.300;2022-09-29T03:48:59;99393.72;;;5.10;100.00
17593;BME280;8915;51.760;14.300;2022-09-29T03:51:25;99400.50;;;5.16;100.00
17593;BME280;8915;51.760;14.300;2022-09-29T03:53:52;99402.13;;;5.20;100.00
17593;BME280;8915;51.760;14.300;2022-09-29T03:56:19;99399.41;;;5.26;100.00
17593;BME280;8915;51.760;14.300;2022-09-29T03:58:46;99407.03;;;5.30;100.00
17593;BME280;8915;51.760;14.300;2022-09-29T04:01:13;99404.66;;;5.23;100.00
17593;BME280;8915;51.760;14.300;2022-09-29T04:03:39;99402.78;;;5.29;100.00
17593;BME280;8915;51.760;14.300;2022-09-29T04:06:06;99400.19;;;5.29;100.00
17593;BME280;8915;51.760;14.300;2022-09-29T04:08:34;99403.72;;;5.25;100.00
17593;BME280;8915;51.760;14.300;2022-09-29T04:11:02;99406.19;;;5.30;100.00
17593;BME280;8915;51.760;14.300;2022-09-29T04:13:28;99412.22;;;5.30;100.00
17593;BME280;8915;51.760;14.300;2022-09-29T04:15:57;99409.56;;;5.34;100.00
17593;BME280;8915;51.760;14.300;2022-09-29T04:18:24;99411.94;;;5.41;100.00
17593;BME280;8915;51.760;14.300;2022-09-29T04:20:51;99412.69;;;5.46;100.00
17593;BME280;8915;51.760;14.300;2022-09-29T04:23:18;99413.66;;;5.42;100.00
17593;BME280;8915;51.760;14.300;2022-09-29T04:25:45;99408.50;;;5.42;100.00
17593;BME280;8915;51.760;14.300;2022-09-29T04:28:12;99413.53;;;5.47;100.00
17593;BME280;8915;51.760;14.300;2022-09-29T04:30:38;99413.63;;;5.44;100.00
17593;BME280;8915;51.760;14.300;2022-09-29T04:33:06;99412.66;;;5.48;100.00
17593;BME280;8915;51.760;14.300;2022-09-29T04:35:32;99410.91;;;5.48;100.00
17593;BME280;8915;51.760;14.300;2022-09-29T04:37:59;99416.13;;;5.47;100.00
17593;BME280;8915;51.760;14.300;2022-09-29T04:40:25;99415.34;;;5.43;100.00
17593;BME280;8915;51.760;14.300;2022-09-29T04:42:51;99409.19;;;5.49;100.00
17593;BME280;8915;51.760;14.300;2022-09-29T04:45:19;99409.16;;;5.50;100.00
17593;BME280;8915;51.760;14.300;2022-09-29T04:47:45;99419.56;;;5.47;100.00
17593;BME280;8915;51.760;14.300;2022-09-29T04:50:13;99419.41;;;5.54;100.00
17593;BME280;8915;51.760;14.300;2022-09-29T04:52:40;99415.91;;;5.56;100.00
17593;BME280;8915;51.760;14.300;2022-09-29T04:55:08;99421.19;;;5.52;100.00
17593;BME280;8915;51.760;14.300;2022-09-29T04:57:35;99423.81;;;5.50;100.00
17593;BME280;8915;51.760;14.300;2022-09-29T05:00:02;99428.94;;;5.52;100.00
17593;BME280;8915;51.760;14.300;2022-09-29T05:02:29;99417.81;;;5.48;100.00
17593;BME280;8915;51.760;14.300;2022-09-29T05:04:55;99416.03;;;5.50;100.00
17593;BME280;8915;51.760;14.300;2022-09-29T05:07:23;99422.84;;;5.54;100.00
17593;BME280;8915;51.760;14.300;2022-09-29T05:09:49;99426.38;;;5.50;100.00
17593;BME280;8915;51.760;14.300;2022-09-29T05:12:16;99425.75;;;5.42;100.00
17593;BME280;8915;51.760;14.300;2022-09-29T05:14:42;99424.59;;;5.52;100.00
17593;BME280;8915;51.760;14.300;2022-09-29T05:17:08;99433.38;;;5.46;100.00
17593;BME280;8915;51.760;14.300;2022-09-29T05:19:35;99429.22;;;5.39;100.00
17593;BME280;8915;51.760;14.300;2022-09-29T05:22:01;99427.50;;;5.40;100.00
17593;BME280;8915;51.760;14.300;2022-09-29T05:24:29;99428.91;;;5.53;100.00
17593;BME280;8915;51.760;14.300;2022-09-29T05:26:55;99433.88;;;5.61;100.00
17593;BME280;8915;51.760;14.300;2022-09-29T05:29:22;99434.00;;;5.56;100.00
17593;BME280;8915;51.760;14.300;2022-09-29T05:31:49;99434.81;;;5.58;100.00
17593;BME280;8915;51.760;14.300;2022-09-29T05:34:15;99434.75;;;5.61;100.00
17593;BME280;8915;51.760;14.300;2022-09-29T05:36:42;99432.25;;;5.57;100.00
17593;BME280;8915;51.760;14.300;2022-09-29T05:39:08;99440.72;;;5.63;100.00
17593;BME280;8915;51.760;14.300;2022-09-29T05:41:36;99438.25;;;5.59;100.00
17593;BME280;8915;51.760;14.300;2022-09-29T05:44:03;99444.00;;;5.70;100.00
17593;BME280;8915;51.760;14.300;2022-09-29T05:46:29;99445.63;;;5.74;100.00
17593;BME280;8915;51.760;14.300;2022-09-29T05:48:55;99440.38;;;5.77;100.00
17593;BME280;8915;51.760;14.300;2022-09-29T05:51:24;99445.38;;;5.83;100.00
17593;BME280;8915;51.760;14.300;2022-09-29T05:53:51;99444.44;;;5.87;100.00
17593;BME280;8915;51.760;14.300;2022-09-29T05:56:20;99440.88;;;5.92;100.00
17593;BME280;8915;51.760;14.300;2022-09-29T05:58:48;99440.94;;;5.88;100.00
17593;BME280;8915;51.760;14.300;2022-09-29T06:01:16;99440.97;;;5.87;100.00
17593;BME280;8915;51.760;14.300;2022-09-29T06:03:43;99444.31;;;5.92;100.00
17593;BME280;8915;51.760;14.300;2022-09-29T06:06:13;99442.50;;;5.96;100.00
17593;BME280;8915;51.760;14.300;2022-09-29T06:08:40;99441.38;;;6.06;100.00
17593;BME280;8915;51.760;14.300;2022-09-29T06:11:08;99440.47;;;6.09;100.00
17593;BME280;8915;51.760;14.300;2022-09-29T06:13:37;99434.31;;;6.13;100.00
17593;BME280;8915;51.760;14.300;2022-09-29T06:16:05;99452.34;;;6.16;100.00
17593;BME280;8915;51.760;14.300;2022-09-29T06:18:32;99440.22;;;6.18;100.00
17593;BME280;8915;51.760;14.300;2022-09-29T06:21:00;99442.75;;;6.21;100.00
17593;BME280;8915;51.760;14.300;2022-09-29T06:23:27;99443.34;;;6.29;100.00
17593;BME280;8915;51.760;14.300;2022-09-29T06:25:55;99446.75;;;6.31;100.00
17593;BME280;8915;51.760;14.300;2022-09-29T06:28:21;99444.03;;;6.36;100.00
17593;BME280;8915;51.760;14.300;2022-09-29T06:30:48;99449.94;;;6.41;100.00
17593;BME280;8915;51.760;14.300;2022-09-29T06:33:15;99455.78;;;6.49;100.00
17593;BME280;8915;51.760;14.300;2022-09-29T06:35:45;99449.59;;;6.53;100.00
17593;BME280;8915;51.760;14.300;2022-09-29T06:38:29;99450.28;;;6.60;100.00
17593;BME280;8915;51.760;14.300;2022-09-29T06:40:56;99452.69;;;6.66;100.00
17593;BME280;8915;51.760;14.300;2022-09-29T06:43:22;99455.28;;;6.66;100.00
17593;BME280;8915;51.760;14.300;2022-09-29T06:45:49;99455.06;;;6.74;100.00
17593;BME280;8915;51.760;14.300;2022-09-29T06:48:16;99454.00;;;6.81;100.00
17593;BME280;8915;51.760;14.300;2022-09-29T06:50:43;99450.44;;;6.83;100.00
17593;BME280;8915;51.760;14.300;2022-09-29T06:53:09;99452.31;;;6.78;100.00
17593;BME280;8915;51.760;14.300;2022-09-29T06:55:35;99451.56;;;6.75;100.00
17593;BME280;8915;51.760;14.300;2022-09-29T06:58:02;99447.03;;;6.83;100.00
17593;BME280;8915;51.760;14.300;2022-09-29T07:00:28;99446.06;;;6.86;100.00
17593;BME280;8915;51.760;14.300;2022-09-29T07:02:55;99447.56;;;6.93;100.00
17593;BME280;8915;51.760;14.300;2022-09-29T07:05:22;99454.84;;;7.10;100.00
17593;BME280;8915;51.760;14.300;2022-09-29T07:07:49;99448.59;;;7.17;100.00
17593;BME280;8915;51.760;14.300;2022-09-29T07:10:15;99458.03;;;7.19;100.00
17593;BME280;8915;51.760;14.300;2022-09-29T07:12:43;99453.59;;;7.23;100.00
17593;BME280;8915;51.760;14.300;2022-09-29T07:15:11;99456.91;;;7.28;100.00
17593;BME280;8915;51.760;14.300;2022-09-29T07:17:37;99454.84;;;7.38;100.00
17593;BME280;8915;51.760;14.300;2022-09-29T07:20:05;99452.47;;;7.32;100.00
17593;BME280;8915;51.760;14.300;2022-09-29T07:22:33;99452.34;;;7.35;100.00
17593;BME280;8915;51.760;14.300;2022-09-29T07:24:59;99454.88;;;7.36;100.00
17593;BME280;8915;51.760;14.300;2022-09-29T07:27:26;99451.53;;;7.33;100.00
17593;BME280;8915;51.760;14.300;2022-09-29T07:29:53;99449.78;;;7.33;100.00
17593;BME280;8915;51.760;14.300;2022-09-29T07:32:19;99455.75;;;7.37;100.00
17593;BME280;8915;51.760;14.300;2022-09-29T07:34:46;99454.75;;;7.41;100.00
17593;BME280;8915;51.760;14.300;2022-09-29T07:37:12;99458.06;;;7.46;100.00
17593;BME280;8915;51.760;14.300;2022-09-29T07:39:40;99462.91;;;7.57;100.00
17593;BME280;8915;51.760;14.300;2022-09-29T07:42:06;99466.25;;;7.61;100.00
17593;BME280;8915;51.760;14.300;2022-09-29T07:44:33;99461.53;;;7.72;100.00
17593;BME280;8915;51.760;14.300;2022-09-29T07:46:59;99453.25;;;7.87;100.00
17593;BME280;8915;51.760;14.300;2022-09-29T07:49:25;99460.50;;;7.77;100.00
17593;BME280;8915;51.760;14.300;2022-09-29T07:51:52;99454.22;;;7.85;100.00
17593;BME280;8915;51.760;14.300;2022-09-29T07:54:18;99469.25;;;8.00;100.00
17593;BME280;8915;51.760;14.300;2022-09-29T07:56:46;99471.19;;;8.20;100.00
17593;BME280;8915;51.760;14.300;2022-09-29T07:59:12;99473.78;;;8.20;100.00
17593;BME280;8915;51.760;14.300;2022-09-29T08:01:39;99465.97;;;8.20;100.00
17593;BME280;8915;51.760;14.300;2022-09-29T08:04:05;99469.50;;;8.18;100.00
17593;BME280;8915;51.760;14.300;2022-09-29T08:06:31;99461.94;;;8.37;100.00
17593;BME280;8915;51.760;14.300;2022-09-29T08:08:59;99463.88;;;8.57;100.00
17593;BME280;8915;51.760;14.300;2022-09-29T08:11:26;99474.13;;;8.60;100.00
17593;BME280;8915;51.760;14.300;2022-09-29T08:13:54;99470.63;;;8.61;100.00
17593;BME280;8915;51.760;14.300;2022-09-29T08:16:21;99478.72;;;8.77;100.00
17593;BME280;8915;51.760;14.300;2022-09-29T08:18:47;99480.81;;;8.90;100.00
17593;BME280;8915;51.760;14.300;2022-09-29T08:21:14;99484.19;;;8.93;100.00
17593;BME280;8915;51.760;14.300;2022-09-29T08:23:41;99484.03;;;8.97;100.00
17593;BME280;8915;51.760;14.300;2022-09-29T08:26:10;99492.56;;;9.01;100.00
17593;BME280;8915;51.760;14.300;2022-09-29T08:28:38;99492.56;;;9.01;100.00
17593;BME280;8915;51.760;14.300;2022-09-29T08:31:10;99491.47;;;9.06;100.00
17593;BME280;8915;51.760;14.300;2022-09-29T08:33:38;99493.88;;;9.11;100.00
17593;BME280;8915;51.760;14.300;2022-09-29T08:36:05;99499.91;;;9.13;100.00
17593;BME280;8915;51.760;14.300;2022-09-29T08:38:39;99505.25;;;9.08;100.00
17593;BME280;8915;51.760;14.300;2022-09-29T08:41:15;99501.41;;;9.19;100.00
17593;BME280;8915;51.760;14.300;2022-09-29T08:43:45;99506.44;;;9.23;100.00
17593;BME280;8915;51.760;14.300;2022-09-29T08:46:21;99515.13;;;9.22;100.00
17593;BME280;8915;51.760;14.300;2022-09-29T08:48:50;99511.88;;;9.17;100.00
17593;BME280;8915;51.760;14.300;2022-09-29T08:51:23;99509.25;;;9.17;100.00
17593;BME280;8915;51.760;14.300;2022-09-29T08:53:54;99514.34;;;9.20;100.00
17593;BME280;8915;51.760;14.300;2022-09-29T08:56:23;99528.50;;;9.13;100.00
17593;BME280;8915;51.760;14.300;2022-09-29T08:58:51;99522.78;;;9.27;100.00
17593;BME280;8915;51.760;14.300;2022-09-29T09:01:26;99537.09;;;9.37;100.00
17593;BME280;8915;51.760;14.300;2022-09-29T09:04:30;99527.75;;;9.55;100.00
17593;BME280;8915;51.760;14.300;2022-09-29T09:07:08;99535.44;;;9.80;100.00
17593;BME280;8915;51.760;14.300;2022-09-29T09:09:48;99532.50;;;9.88;100.00
17593;BME280;8915;51.760;14.300;2022-09-29T09:12:28;99537.16;;;10.02;100.00
17593;BME280;8915;51.760;14.300;2022-09-29T09:15:16;99548.78;;;10.15;100.00
17593;BME280;8915;51.760;14.300;2022-09-29T09:17:58;99534.81;;;10.38;100.00
17593;BME280;8915;51.760;14.300;2022-09-29T09:20:32;99540.56;;;10.66;100.00
17593;BME280;8915;51.760;14.300;2022-09-29T09:23:05;99539.84;;;10.83;100.00
17593;BME280;8915;51.760;14.300;2022-09-29T09:25:35;99542.53;;;11.00;100.00
17593;BME280;8915;51.760;14.300;2022-09-29T09:28:11;99545.88;;;11.23;100.00
17593;BME280;8915;51.760;14.300;2022-09-29T09:30:41;99552.50;;;11.49;100.00
17593;BME280;8915;51.760;14.300;2022-09-29T09:33:18;99552.88;;;11.59;100.00
17593;BME280;8915;51.760;14.300;2022-09-29T09:35:50;99558.56;;;11.49;100.00
17593;BME280;8915;51.760;14.300;2022-09-29T09:38:19;99556.22;;;11.43;100.00
17593;BME280;8915;51.760;14.300;2022-09-29T09:40:52;99562.81;;;11.33;100.00
17593;BME280;8915;51.760;14.300;2022-09-29T09:43:22;99556.06;;;11.46;100.00
17593;BME280;8915;51.760;14.300;2022-09-29T09:45:56;99561.66;;;11.58;100.00
17593;BME280;8915;51.760;14.300;2022-09-29T09:48:29;99563.69;;;11.51;100.00
17593;BME280;8915;51.760;14.300;2022-09-29T09:51:00;99567.38;;;11.47;100.00
17593;BME280;8915;51.760;14.300;2022-09-29T09:53:32;99564.91;;;11.44;100.00
17593;BME280;8915;51.760;14.300;2022-09-29T09:56:09;99570.63;;;11.33;100.00
17593;BME280;8915;51.760;14.300;2022-09-29T09:58:57;99565.88;;;11.41;100.00
17593;BME280;8915;51.760;14.300;2022-09-29T10:01:26;99569.44;;;11.40;100.00
17593;BME280;8915;51.760;14.300;2022-09-29T10:03:56;99568.22;;;11.47;100.00
17593;BME280;8915;51.760;14.300;2022-09-29T10:06:23;99568.50;;;11.41;100.00
17593;BME280;8915;51.760;14.300;2022-09-29T10:08:50;99573.19;;;11.34;100.00
17593;BME280;8915;51.760;14.300;2022-09-29T10:11:22;99565.88;;;11.41;100.00
17593;BME280;8915;51.760;14.300;2022-09-29T10:13:56;99568.50;;;11.41;100.00
17593;BME280;8915;51.760;14.300;2022-09-29T10:16:27;99566.69;;;11.24;100.00
17593;BME280;8915;51.760;14.300;2022-09-29T10:18:57;99559.69;;;11.25;100.00
17593;BME280;8915;51.760;14.300;2022-09-29T10:21:35;99563.69;;;11.13;100.00
17593;BME280;8915;51.760;14.300;2022-09-29T10:24:03;99563.56;;;11.16;100.00
17593;BME280;8915;51.760;14.300;2022-09-29T10:26:33;99564.88;;;11.06;100.00
17593;BME280;8915;51.760;14.300;2022-09-29T10:29:03;99562.09;;;11.10;100.00
17593;BME280;8915;51.760;14.300;2022-09-29T10:31:42;99564.25;;;11.01;100.00
17593;BME280;8915;51.760;14.300;2022-09-29T10:34:15;99564.31;;;10.99;100.00
17593;BME280;8915;51.760;14.300;2022-09-29T10:36:49;99566.72;;;11.04;100.00
17593;BME280;8915;51.760;14.300;2022-09-29T10:39:30;99575.81;;;10.95;100.00
17593;BME280;8915;51.760;14.300;2022-09-29T10:41:56;99575.44;;;11.03;100.00
17593;BME280;8915;51.760;14.300;2022-09-29T10:44:29;99581.94;;;11.13;100.00
17593;BME280;8915;51.760;14.300;2022-09-29T10:46:57;99579.44;;;11.30;100.00
17593;BME280;8915;51.760;14.300;2022-09-29T10:49:26;99589.66;;;11.35;100.00
17593;BME280;8915;51.760;14.300;2022-09-29T10:51:57;99582.81;;;11.51;100.00
17593;BME280;8915;51.760;14.300;2022-09-29T10:54:26;99579.06;;;11.57;100.00
17593;BME280;8915;51.760;14.300;2022-09-29T10:56:54;99583.44;;;11.56;100.00
17593;BME280;8915;51.760;14.300;2022-09-29T10:59:21;99583.38;;;11.58;100.00
17593;BME280;8915;51.760;14.300;2022-09-29T11:01:50;99585.28;;;11.73;100.00
17593;BME280;8915;51.760;14.300;2022-09-29T11:04:22;99588.41;;;11.80;100.00
17593;BME280;8915;51.760;14.300;2022-09-29T11:06:51;99592.72;;;11.81;100.00
17593;BME280;8915;51.760;14.300;2022-09-29T11:09:29;99601.97;;;11.88;100.00
17593;BME280;8915;51.760;14.300;2022-09-29T11:11:57;99598.03;;;11.99;100.00
17593;BME280;8915;51.760;14.300;2022-09-29T11:14:25;99604.66;;;12.06;100.00
17593;BME280;8915;51.760;14.300;2022-09-29T11:16:53;99605.34;;;12.09;100.00
17593;BME280;8915;51.760;14.300;2022-09-29T11:19:20;99590.84;;;12.21;100.00
17593;BME280;8915;51.760;14.300;2022-09-29T11:22:06;99609.63;;;12.29;100.00
17593;BME280;8915;51.760;14.300;2022-09-29T11:24:53;99604.63;;;12.42;100.00
17593;BME280;8915;51.760;14.300;2022-09-29T11:27:32;99610.13;;;12.36;100.00
17593;BME280;8915;51.760;14.300;2022-09-29T11:30:06;99619.34;;;12.43;100.00
17593;BME280;8915;51.760;14.300;2022-09-29T11:35:38;99603.94;;;12.56;100.00
17593;BME280;8915;51.760;14.300;2022-09-29T11:38:24;99602.69;;;12.63;100.00
17593;BME280;8915;51.760;14.300;2022-09-29T11:41:04;99605.91;;;12.68;100.00
17593;BME280;8915;51.760;14.300;2022-09-29T11:43:42;99617.75;;;12.58;100.00
17593;BME280;8915;51.760;14.300;2022-09-29T11:46:24;99614.13;;;12.61;100.00
17593;BME280;8915;51.760;14.300;2022-09-29T11:49:06;99611.53;;;12.61;100.00
17593;BME280;8915;51.760;14.300;2022-09-29T11:51:46;99620.06;;;12.64;100.00
17593;BME280;8915;51.760;14.300;2022-09-29T11:54:28;99621.69;;;12.67;100.00
17593;BME280;8915;51.760;14.300;2022-09-29T11:57:00;99623.59;;;12.63;100.00
17593;BME280;8915;51.760;14.300;2022-09-29T11:59:45;99622.84;;;12.61;100.00
17593;BME280;8915;51.760;14.300;2022-09-29T12:05:13;99621.97;;;12.78;100.00
17593;BME280;8915;51.760;14.300;2022-09-29T12:07:51;99628.06;;;12.79;100.00
17593;BME280;8915;51.760;14.300;2022-09-29T12:10:38;99629.75;;;12.80;100.00
17593;BME280;8915;51.760;14.300;2022-09-29T12:13:17;99634.00;;;12.82;100.00
17593;BME280;8915;51.760;14.300;2022-09-29T12:15:54;99634.97;;;12.80;100.00
17593;BME280;8915;51.760;14.300;2022-09-29T12:18:24;99624.44;;;12.81;100.00
17593;BME280;8915;51.760;14.300;2022-09-29T12:20:54;99629.88;;;12.77;100.00
17593;BME280;8915;51.760;14.300;2022-09-29T12:23:24;99625.59;;;12.93;100.00
17593;BME280;8915;51.760;14.300;2022-09-29T12:25:57;99639.63;;;13.08;100.00
17593;BME280;8915;51.760;14.300;2022-09-29T12:28:29;99649.97;;;12.94;100.00
17593;BME280;8915;51.760;14.300;2022-09-29T12:30:58;99641.03;;;12.98;100.00
17593;BME280;8915;51.760;14.300;2022-09-29T12:33:30;99631.84;;;13.06;100.00
17593;BME280;8915;51.760;14.300;2022-09-29T12:36:12;99620.78;;;13.01;100.00
17593;BME280;8915;51.760;14.300;2022-09-29T12:38:59;99632.13;;;13.02;100.00
17593;BME280;8915;51.760;14.300;2022-09-29T12:41:32;99626.38;;;13.11;100.00
17593;BME280;8915;51.760;14.300;2022-09-29T12:44:05;99632.22;;;13.16;100.00
17593;BME280;8915;51.760;14.300;2022-09-29T12:46:41;99632.16;;;13.18;100.00
17593;BME280;8915;51.760;14.300;2022-09-29T12:49:17;99643.53;;;13.17;100.00
17593;BME280;8915;51.760;14.300;2022-09-29T12:51:45;99641.69;;;13.19;100.00
17593;BME280;8915;51.760;14.300;2022-09-29T12:54:17;99645.25;;;13.18;99.48
17593;BME280;8915;51.760;14.300;2022-09-29T12:56:53;99645.84;;;13.23;100.00
17593;BME280;8915;51.760;14.300;2022-09-29T12:59:28;99637.91;;;13.24;100.00
17593;BME280;8915;51.760;14.300;2022-09-29T13:01:57;99634.25;;;13.11;100.00
17593;BME280;8915;51.760;14.300;2022-09-29T13:04:51;99639.41;;;13.13;100.00
17593;BME280;8915;51.760;14.300;2022-09-29T13:07:35;99651.41;;;12.99;100.00
17593;BME280;8915;51.760;14.300;2022-09-29T13:10:25;99659.34;;;12.98;100.00
17593;BME280;8915;51.760;14.300;2022-09-29T13:13:24;99648.66;;;13.02;100.00
17593;BME280;8915;51.760;14.300;2022-09-29T13:16:09;99661.88;;;12.99;100.00
17593;BME280;8915;51.760;14.300;2022-09-29T13:19:04;99659.25;;;12.99;100.00
17593;BME280;8915;51.760;14.300;2022-09-29T13:21:43;99649.97;;;12.94;100.00